sensor_id;sensor_type;location;lat;lon;timestamp;temperature;humidity
53748;DHT22;39655;53.210;5.768;2024-01-07T00:01:23;0.10;94.80
53748;DHT22;39655;53.210;5.768;2024-01-07T00:03:50;0.20;94.70
53748;DHT22;39655;53.210;5.768;2024-01-07T00:06:16;0.20;94.70
53748;DHT22;39655;53.210;5.768;2024-01-07T00:08:41;0.20;94.70
53748;DHT22;39655;53.210;5.768;2024-01-07T00:11:08;0.20;94.60
53748;DHT22;39655;53.210;5.768;2024-01-07T00:13:33;0.20;94.60
53748;DHT22;39655;53.210;5.768;2024-01-07T00:15:59;0.20;94.50
53748;DHT22;39655;53.210;5.768;2024-01-07T00:18:25;0.30;94.60
53748;DHT22;39655;53.210;5.768;2024-01-07T00:20:52;0.30;94.50
53748;DHT22;39655;53.210;5.768;2024-01-07T00:23:18;0.30;94.50
53748;DHT22;39655;53.210;5.768;2024-01-07T00:25:46;0.30;94.50
53748;DHT22;39655;53.210;5.768;2024-01-07T00:28:12;0.30;94.50
53748;DHT22;39655;53.210;5.768;2024-01-07T00:30:38;0.30;94.40
53748;DHT22;39655;53.210;5.768;2024-01-07T00:33:03;0.40;94.50
53748;DHT22;39655;53.210;5.768;2024-01-07T00:35:29;0.40;94.50
53748;DHT22;39655;53.210;5.768;2024-01-07T00:37:55;0.40;94.40
53748;DHT22;39655;53.210;5.768;2024-01-07T00:40:22;0.40;94.50
53748;DHT22;39655;53.210;5.768;2024-01-07T00:42:48;0.40;94.40
53748;DHT22;39655;53.210;5.768;2024-01-07T00:45:13;0.40;94.20
53748;DHT22;39655;53.210;5.768;2024-01-07T00:47:39;0.40;94.20
53748;DHT22;39655;53.210;5.768;2024-01-07T00:50:05;0.40;94.10
53748;DHT22;39655;53.210;5.768;2024-01-07T00:52:31;0.40;94.10
53748;DHT22;39655;53.210;5.768;2024-01-07T00:54:56;0.40;94.10
53748;DHT22;39655;53.210;5.768;2024-01-07T00:57:22;0.40;94.10
53748;DHT22;39655;53.210;5.768;2024-01-07T00:59:48;0.40;93.80
53748;DHT22;39655;53.210;5.768;2024-01-07T01:02:13;0.40;93.90
53748;DHT22;39655;53.210;5.768;2024-01-07T01:04:39;0.40;93.90
53748;DHT22;39655;53.210;5.768;2024-01-07T01:07:05;0.30;94.00
53748;DHT22;39655;53.210;5.768;2024-01-07T01:09:33;0.30;94.00
53748;DHT22;39655;53.210;5.768;2024-01-07T01:11:58;0.30;93.90
53748;DHT22;39655;53.210;5.768;2024-01-07T01:14:24;0.40;93.80
53748;DHT22;39655;53.210;5.768;2024-01-07T01:16:49;0.30;93.80
53748;DHT22;39655;53.210;5.768;2024-01-07T01:19:15;0.30;93.80
53748;DHT22;39655;53.210;5.768;2024-01-07T01:21:41;0.30;93.70
53748;DHT22;39655;53.210;5.768;2024-01-07T01:24:07;0.40;93.80
53748;DHT22;39655;53.210;5.768;2024-01-07T01:26:32;0.30;93.90
53748;DHT22;39655;53.210;5.768;2024-01-07T01:28:58;0.30;93.90
53748;DHT22;39655;53.210;5.768;2024-01-07T01:31:23;0.30;94.00
53748;DHT22;39655;53.210;5.768;2024-01-07T01:33:49;0.30;93.90
53748;DHT22;39655;53.210;5.768;2024-01-07T01:36:15;0.30;93.90
53748;DHT22;39655;53.210;5.768;2024-01-07T01:38:40;0.30;93.90
53748;DHT22;39655;53.210;5.768;2024-01-07T01:41:06;0.30;93.80
53748;DHT22;39655;53.210;5.768;2024-01-07T01:43:33;0.30;93.80
53748;DHT22;39655;53.210;5.768;2024-01-07T01:45:58;0.30;93.70
53748;DHT22;39655;53.210;5.768;2024-01-07T01:48:25;0.30;93.60
53748;DHT22;39655;53.210;5.768;2024-01-07T01:50:53;0.30;93.60
53748;DHT22;39655;53.210;5.768;2024-01-07T01:53:19;0.20;93.50
53748;DHT22;39655;53.210;5.768;2024-01-07T01:55:45;0.20;93.50
53748;DHT22;39655;53.210;5.768;2024-01-07T01:58:13;0.20;93.50
53748;DHT22;39655;53.210;5.768;2024-01-07T02:00:39;0.20;93.50
53748;DHT22;39655;53.210;5.768;2024-01-07T02:03:05;0.10;93.60
53748;DHT22;39655;53.210;5.768;2024-01-07T02:05:30;0.10;93.60
53748;DHT22;39655;53.210;5.768;2024-01-07T02:07:56;0.10;93.60
53748;DHT22;39655;53.210;5.768;2024-01-07T02:10:22;0.10;93.70
53748;DHT22;39655;53.210;5.768;2024-01-07T02:12:48;0.10;93.80
53748;DHT22;39655;53.210;5.768;2024-01-07T02:15:14;0.10;93.80
53748;DHT22;39655;53.210;5.768;2024-01-07T02:17:40;0.10;93.90
53748;DHT22;39655;53.210;5.768;2024-01-07T02:20:09;0.10;93.80
53748;DHT22;39655;53.210;5.768;2024-01-07T02:22:34;0.10;93.70
53748;DHT22;39655;53.210;5.768;2024-01-07T02:25:00;0.00;93.70
53748;DHT22;39655;53.210;5.768;2024-01-07T02:27:25;0.00;93.60
53748;DHT22;39655;53.210;5.768;2024-01-07T02:29:51;0.10;93.70
53748;DHT22;39655;53.210;5.768;2024-01-07T02:32:17;0.00;93.60
53748;DHT22;39655;53.210;5.768;2024-01-07T02:34:42;0.00;93.50
53748;DHT22;39655;53.210;5.768;2024-01-07T02:37:09;0.00;93.40
53748;DHT22;39655;53.210;5.768;2024-01-07T02:39:34;0.00;93.20
53748;DHT22;39655;53.210;5.768;2024-01-07T02:42:00;0.00;92.90
53748;DHT22;39655;53.210;5.768;2024-01-07T02:44:26;0.00;92.90
53748;DHT22;39655;53.210;5.768;2024-01-07T02:46:51;0.00;92.90
53748;DHT22;39655;53.210;5.768;2024-01-07T02:49:17;0.00;92.70
53748;DHT22;39655;53.210;5.768;2024-01-07T02:51:42;0.00;92.70
53748;DHT22;39655;53.210;5.768;2024-01-07T02:54:10;0.00;92.70
53748;DHT22;39655;53.210;5.768;2024-01-07T02:56:39;0.00;92.70
53748;DHT22;39655;53.210;5.768;2024-01-07T02:59:04;0.00;92.70
53748;DHT22;39655;53.210;5.768;2024-01-07T03:01:30;-3276.70;92.80
53748;DHT22;39655;53.210;5.768;2024-01-07T03:03:55;-3276.70;92.80
53748;DHT22;39655;53.210;5.768;2024-01-07T03:06:21;-3276.70;92.90
53748;DHT22;39655;53.210;5.768;2024-01-07T03:08:47;-3276.60;92.90
53748;DHT22;39655;53.210;5.768;2024-01-07T03:11:13;-3276.50;93.00
53748;DHT22;39655;53.210;5.768;2024-01-07T03:13:40;-3276.50;93.10
53748;DHT22;39655;53.210;5.768;2024-01-07T03:16:06;-3276.50;93.10
53748;DHT22;39655;53.210;5.768;2024-01-07T03:18:31;-3276.60;93.10
53748;DHT22;39655;53.210;5.768;2024-01-07T03:20:57;-3276.50;93.00
53748;DHT22;39655;53.210;5.768;2024-01-07T03:23:23;-3276.50;93.10
53748;DHT22;39655;53.210;5.768;2024-01-07T03:25:48;-3276.60;93.10
53748;DHT22;39655;53.210;5.768;2024-01-07T03:28:14;-3276.60;93.10
53748;DHT22;39655;53.210;5.768;2024-01-07T03:30:40;-3276.70;93.00
53748;DHT22;39655;53.210;5.768;2024-01-07T03:33:05;-3276.70;92.80
53748;DHT22;39655;53.210;5.768;2024-01-07T03:35:31;0.00;92.70
53748;DHT22;39655;53.210;5.768;2024-01-07T03:37:56;0.00;92.50
53748;DHT22;39655;53.210;5.768;2024-01-07T03:40:22;0.00;92.40
53748;DHT22;39655;53.210;5.768;2024-01-07T03:42:48;0.00;92.10
53748;DHT22;39655;53.210;5.768;2024-01-07T03:45:13;0.00;92.10
53748;DHT22;39655;53.210;5.768;2024-01-07T03:47:39;0.10;92.00
53748;DHT22;39655;53.210;5.768;2024-01-07T03:50:05;0.10;91.90
53748;DHT22;39655;53.210;5.768;2024-01-07T03:52:31;0.10;91.90
53748;DHT22;39655;53.210;5.768;2024-01-07T03:54:56;0.10;91.70
53748;DHT22;39655;53.210;5.768;2024-01-07T03:57:22;0.10;91.50
53748;DHT22;39655;53.210;5.768;2024-01-07T03:59:48;0.10;91.60
53748;DHT22;39655;53.210;5.768;2024-01-07T04:02:13;0.10;91.50
53748;DHT22;39655;53.210;5.768;2024-01-07T04:04:42;0.10;91.40
53748;DHT22;39655;53.210;5.768;2024-01-07T04:07:07;0.20;91.20
53748;DHT22;39655;53.210;5.768;2024-01-07T04:09:33;0.20;91.00
53748;DHT22;39655;53.210;5.768;2024-01-07T04:11:58;0.20;91.00
53748;DHT22;39655;53.210;5.768;2024-01-07T04:14:24;0.20;90.90
53748;DHT22;39655;53.210;5.768;2024-01-07T04:16:52;0.20;90.90
53748;DHT22;39655;53.210;5.768;2024-01-07T04:19:18;0.20;90.80
53748;DHT22;39655;53.210;5.768;2024-01-07T04:21:47;0.20;90.80
53748;DHT22;39655;53.210;5.768;2024-01-07T04:24:13;0.20;90.60
53748;DHT22;39655;53.210;5.768;2024-01-07T04:26:38;0.20;90.50
53748;DHT22;39655;53.210;5.768;2024-01-07T04:29:04;0.20;90.40
53748;DHT22;39655;53.210;5.768;2024-01-07T04:31:30;0.20;90.30
53748;DHT22;39655;53.210;5.768;2024-01-07T04:33:55;0.20;90.20
53748;DHT22;39655;53.210;5.768;2024-01-07T04:36:21;0.20;90.20
53748;DHT22;39655;53.210;5.768;2024-01-07T04:38:46;0.20;89.80
53748;DHT22;39655;53.210;5.768;2024-01-07T04:41:12;0.20;89.70
53748;DHT22;39655;53.210;5.768;2024-01-07T04:43:38;0.20;89.60
53748;DHT22;39655;53.210;5.768;2024-01-07T04:46:03;0.20;89.60
53748;DHT22;39655;53.210;5.768;2024-01-07T04:48:29;0.20;89.50
53748;DHT22;39655;53.210;5.768;2024-01-07T04:50:55;0.20;89.50
53748;DHT22;39655;53.210;5.768;2024-01-07T04:53:20;0.20;89.20
53748;DHT22;39655;53.210;5.768;2024-01-07T04:55:46;0.20;89.10
53748;DHT22;39655;53.210;5.768;2024-01-07T04:58:12;0.20;89.20
53748;DHT22;39655;53.210;5.768;2024-01-07T05:00:37;0.30;88.80
53748;DHT22;39655;53.210;5.768;2024-01-07T05:03:03;0.20;88.50
53748;DHT22;39655;53.210;5.768;2024-01-07T05:05:29;0.20;88.50
53748;DHT22;39655;53.210;5.768;2024-01-07T05:07:54;0.30;88.40
53748;DHT22;39655;53.210;5.768;2024-01-07T05:10:20;0.20;88.00
53748;DHT22;39655;53.210;5.768;2024-01-07T05:12:46;0.20;87.90
53748;DHT22;39655;53.210;5.768;2024-01-07T05:15:11;0.30;88.10
53748;DHT22;39655;53.210;5.768;2024-01-07T05:17:37;0.30;87.60
53748;DHT22;39655;53.210;5.768;2024-01-07T05:20:03;0.30;87.80
53748;DHT22;39655;53.210;5.768;2024-01-07T05:22:28;0.20;87.70
53748;DHT22;39655;53.210;5.768;2024-01-07T05:24:54;0.30;88.00
53748;DHT22;39655;53.210;5.768;2024-01-07T05:27:20;0.30;87.80
53748;DHT22;39655;53.210;5.768;2024-01-07T05:29:45;0.30;87.90
53748;DHT22;39655;53.210;5.768;2024-01-07T05:32:15;0.30;87.80
53748;DHT22;39655;53.210;5.768;2024-01-07T05:34:40;0.30;87.70
53748;DHT22;39655;53.210;5.768;2024-01-07T05:37:06;0.30;87.60
53748;DHT22;39655;53.210;5.768;2024-01-07T05:39:31;0.30;87.20
53748;DHT22;39655;53.210;5.768;2024-01-07T05:41:57;0.30;87.00
53748;DHT22;39655;53.210;5.768;2024-01-07T05:44:22;0.30;87.00
53748;DHT22;39655;53.210;5.768;2024-01-07T05:46:48;0.30;86.80
53748;DHT22;39655;53.210;5.768;2024-01-07T05:49:14;0.30;86.80
53748;DHT22;39655;53.210;5.768;2024-01-07T05:51:40;0.40;86.50
53748;DHT22;39655;53.210;5.768;2024-01-07T05:54:06;0.40;86.00
53748;DHT22;39655;53.210;5.768;2024-01-07T05:56:31;0.40;86.10
53748;DHT22;39655;53.210;5.768;2024-01-07T05:58:57;0.40;86.00
53748;DHT22;39655;53.210;5.768;2024-01-07T06:01:23;0.40;85.80
53748;DHT22;39655;53.210;5.768;2024-01-07T06:03:48;0.40;85.90
53748;DHT22;39655;53.210;5.768;2024-01-07T06:06:14;0.40;85.90
53748;DHT22;39655;53.210;5.768;2024-01-07T06:08:44;0.40;85.90
53748;DHT22;39655;53.210;5.768;2024-01-07T06:11:10;0.40;85.80
53748;DHT22;39655;53.210;5.768;2024-01-07T06:13:37;0.50;85.70
53748;DHT22;39655;53.210;5.768;2024-01-07T06:16:03;0.40;85.60
53748;DHT22;39655;53.210;5.768;2024-01-07T06:18:29;0.50;85.20
53748;DHT22;39655;53.210;5.768;2024-01-07T06:20:55;0.50;85.20
53748;DHT22;39655;53.210;5.768;2024-01-07T06:23:21;0.50;85.00
53748;DHT22;39655;53.210;5.768;2024-01-07T06:25:47;0.40;85.30
53748;DHT22;39655;53.210;5.768;2024-01-07T06:28:12;0.40;85.00
53748;DHT22;39655;53.210;5.768;2024-01-07T06:30:38;0.40;85.10
53748;DHT22;39655;53.210;5.768;2024-01-07T06:33:04;0.50;84.60
53748;DHT22;39655;53.210;5.768;2024-01-07T06:35:30;0.50;84.00
53748;DHT22;39655;53.210;5.768;2024-01-07T06:37:56;0.40;84.00
53748;DHT22;39655;53.210;5.768;2024-01-07T06:40:21;0.40;84.00
53748;DHT22;39655;53.210;5.768;2024-01-07T06:42:48;0.40;84.00
53748;DHT22;39655;53.210;5.768;2024-01-07T06:45:15;0.40;83.70
53748;DHT22;39655;53.210;5.768;2024-01-07T06:47:40;0.40;83.50
53748;DHT22;39655;53.210;5.768;2024-01-07T06:50:06;0.40;83.80
53748;DHT22;39655;53.210;5.768;2024-01-07T06:52:33;0.40;83.50
53748;DHT22;39655;53.210;5.768;2024-01-07T06:55:01;0.40;83.50
53748;DHT22;39655;53.210;5.768;2024-01-07T06:57:27;0.40;83.80
53748;DHT22;39655;53.210;5.768;2024-01-07T06:59:53;0.40;83.60
53748;DHT22;39655;53.210;5.768;2024-01-07T07:02:20;0.40;83.50
53748;DHT22;39655;53.210;5.768;2024-01-07T07:04:47;0.40;83.40
53748;DHT22;39655;53.210;5.768;2024-01-07T07:07:13;0.40;83.40
53748;DHT22;39655;53.210;5.768;2024-01-07T07:09:39;0.40;83.40
53748;DHT22;39655;53.210;5.768;2024-01-07T07:12:05;0.40;83.40
53748;DHT22;39655;53.210;5.768;2024-01-07T07:14:31;0.40;83.30
53748;DHT22;39655;53.210;5.768;2024-01-07T07:16:57;0.50;83.10
53748;DHT22;39655;53.210;5.768;2024-01-07T07:19:23;0.40;83.00
53748;DHT22;39655;53.210;5.768;2024-01-07T07:21:48;0.40;83.20
53748;DHT22;39655;53.210;5.768;2024-01-07T07:24:14;0.40;83.10
53748;DHT22;39655;53.210;5.768;2024-01-07T07:26:40;0.40;83.20
53748;DHT22;39655;53.210;5.768;2024-01-07T07:29:17;0.40;83.30
53748;DHT22;39655;53.210;5.768;2024-01-07T07:32:33;0.40;83.30
53748;DHT22;39655;53.210;5.768;2024-01-07T07:35:11;0.30;83.50
53748;DHT22;39655;53.210;5.768;2024-01-07T07:38:09;0.40;83.40
53748;DHT22;39655;53.210;5.768;2024-01-07T07:40:40;0.30;83.20
53748;DHT22;39655;53.210;5.768;2024-01-07T07:45:55;0.30;83.40
53748;DHT22;39655;53.210;5.768;2024-01-07T07:48:24;0.20;83.50
53748;DHT22;39655;53.210;5.768;2024-01-07T07:51:01;0.20;83.50
53748;DHT22;39655;53.210;5.768;2024-01-07T07:53:29;0.20;83.70
53748;DHT22;39655;53.210;5.768;2024-01-07T07:56:03;0.10;83.90
53748;DHT22;39655;53.210;5.768;2024-01-07T08:01:11;0.00;84.00
53748;DHT22;39655;53.210;5.768;2024-01-07T08:03:39;0.00;84.00
53748;DHT22;39655;53.210;5.768;2024-01-07T08:06:10;0.00;84.10
53748;DHT22;39655;53.210;5.768;2024-01-07T08:08:38;-3276.70;84.30
53748;DHT22;39655;53.210;5.768;2024-01-07T08:11:04;-3276.60;84.40
53748;DHT22;39655;53.210;5.768;2024-01-07T08:13:35;-3276.60;84.40
53748;DHT22;39655;53.210;5.768;2024-01-07T08:16:01;-3276.50;84.50
53748;DHT22;39655;53.210;5.768;2024-01-07T08:18:27;-3276.50;84.60
53748;DHT22;39655;53.210;5.768;2024-01-07T08:20:52;-3276.40;84.70
53748;DHT22;39655;53.210;5.768;2024-01-07T08:23:18;-3276.40;84.70
53748;DHT22;39655;53.210;5.768;2024-01-07T08:25:45;-3276.40;84.60
53748;DHT22;39655;53.210;5.768;2024-01-07T08:28:17;-3276.40;84.60
53748;DHT22;39655;53.210;5.768;2024-01-07T08:30:47;-3276.30;84.80
53748;DHT22;39655;53.210;5.768;2024-01-07T08:33:14;-3276.30;84.90
53748;DHT22;39655;53.210;5.768;2024-01-07T08:35:43;-3276.30;84.90
53748;DHT22;39655;53.210;5.768;2024-01-07T08:38:09;-3276.30;85.00
53748;DHT22;39655;53.210;5.768;2024-01-07T08:40:34;-3276.30;85.00
53748;DHT22;39655;53.210;5.768;2024-01-07T08:43:01;-3276.30;85.10
53748;DHT22;39655;53.210;5.768;2024-01-07T08:45:27;-3276.30;85.20
53748;DHT22;39655;53.210;5.768;2024-01-07T08:47:53;-3276.40;85.30
53748;DHT22;39655;53.210;5.768;2024-01-07T08:50:18;-3276.50;85.30
53748;DHT22;39655;53.210;5.768;2024-01-07T08:52:44;-3276.50;85.40
53748;DHT22;39655;53.210;5.768;2024-01-07T08:55:11;-3276.70;85.10
53748;DHT22;39655;53.210;5.768;2024-01-07T08:57:38;0.00;84.80
53748;DHT22;39655;53.210;5.768;2024-01-07T09:00:06;0.00;84.40
53748;DHT22;39655;53.210;5.768;2024-01-07T09:02:35;0.10;84.00
53748;DHT22;39655;53.210;5.768;2024-01-07T09:05:01;0.20;83.40
53748;DHT22;39655;53.210;5.768;2024-01-07T09:07:27;0.20;83.10
53748;DHT22;39655;53.210;5.768;2024-01-07T09:09:52;0.30;82.80
53748;DHT22;39655;53.210;5.768;2024-01-07T09:12:20;0.30;82.70
53748;DHT22;39655;53.210;5.768;2024-01-07T09:14:46;0.30;82.50
53748;DHT22;39655;53.210;5.768;2024-01-07T09:17:12;0.30;82.50
53748;DHT22;39655;53.210;5.768;2024-01-07T09:19:38;0.40;82.30
53748;DHT22;39655;53.210;5.768;2024-01-07T09:22:04;0.40;82.00
53748;DHT22;39655;53.210;5.768;2024-01-07T09:24:29;0.40;81.70
53748;DHT22;39655;53.210;5.768;2024-01-07T09:26:55;0.40;81.80
53748;DHT22;39655;53.210;5.768;2024-01-07T09:29:22;0.50;81.50
53748;DHT22;39655;53.210;5.768;2024-01-07T09:31:48;0.50;81.30
53748;DHT22;39655;53.210;5.768;2024-01-07T09:34:13;0.50;81.10
53748;DHT22;39655;53.210;5.768;2024-01-07T09:36:40;0.50;81.50
53748;DHT22;39655;53.210;5.768;2024-01-07T09:39:05;0.50;81.50
53748;DHT22;39655;53.210;5.768;2024-01-07T09:41:32;0.50;81.30
53748;DHT22;39655;53.210;5.768;2024-01-07T09:43:59;0.50;81.40
53748;DHT22;39655;53.210;5.768;2024-01-07T09:46:26;0.60;81.30
53748;DHT22;39655;53.210;5.768;2024-01-07T09:48:54;0.60;81.50
53748;DHT22;39655;53.210;5.768;2024-01-07T09:51:22;0.60;81.40
53748;DHT22;39655;53.210;5.768;2024-01-07T09:53:48;0.60;81.40
53748;DHT22;39655;53.210;5.768;2024-01-07T09:56:26;0.60;81.60
53748;DHT22;39655;53.210;5.768;2024-01-07T09:58:54;0.70;81.80
53748;DHT22;39655;53.210;5.768;2024-01-07T10:01:20;0.80;81.50
53748;DHT22;39655;53.210;5.768;2024-01-07T10:03:47;0.70;81.50
53748;DHT22;39655;53.210;5.768;2024-01-07T10:06:13;0.80;81.30
53748;DHT22;39655;53.210;5.768;2024-01-07T10:08:39;0.80;81.10
53748;DHT22;39655;53.210;5.768;2024-01-07T10:11:04;0.80;80.80
53748;DHT22;39655;53.210;5.768;2024-01-07T10:13:31;0.80;80.50
53748;DHT22;39655;53.210;5.768;2024-01-07T10:15:56;0.90;80.20
53748;DHT22;39655;53.210;5.768;2024-01-07T10:18:22;0.90;79.90
53748;DHT22;39655;53.210;5.768;2024-01-07T10:20:48;0.90;80.00
53748;DHT22;39655;53.210;5.768;2024-01-07T10:23:19;1.00;79.80
53748;DHT22;39655;53.210;5.768;2024-01-07T10:25:45;1.00;79.70
53748;DHT22;39655;53.210;5.768;2024-01-07T10:28:13;1.00;79.70
53748;DHT22;39655;53.210;5.768;2024-01-07T10:30:40;1.00;79.10
53748;DHT22;39655;53.210;5.768;2024-01-07T10:33:07;1.00;79.50
53748;DHT22;39655;53.210;5.768;2024-01-07T10:35:35;1.10;79.70
53748;DHT22;39655;53.210;5.768;2024-01-07T10:38:04;1.20;79.30
53748;DHT22;39655;53.210;5.768;2024-01-07T10:40:31;1.20;79.40
53748;DHT22;39655;53.210;5.768;2024-01-07T10:42:59;1.20;79.30
53748;DHT22;39655;53.210;5.768;2024-01-07T10:45:24;1.20;78.80
53748;DHT22;39655;53.210;5.768;2024-01-07T10:47:54;1.30;78.30
53748;DHT22;39655;53.210;5.768;2024-01-07T10:50:21;1.30;78.00
53748;DHT22;39655;53.210;5.768;2024-01-07T10:52:56;1.30;78.20
53748;DHT22;39655;53.210;5.768;2024-01-07T10:55:25;1.40;78.00
53748;DHT22;39655;53.210;5.768;2024-01-07T10:57:53;1.40;78.50
53748;DHT22;39655;53.210;5.768;2024-01-07T11:00:54;1.40;78.60
53748;DHT22;39655;53.210;5.768;2024-01-07T11:04:01;1.50;78.80
53748;DHT22;39655;53.210;5.768;2024-01-07T11:06:43;1.50;78.70
53748;DHT22;39655;53.210;5.768;2024-01-07T11:09:30;1.40;78.90
53748;DHT22;39655;53.210;5.768;2024-01-07T11:11:59;1.40;79.00
53748;DHT22;39655;53.210;5.768;2024-01-07T11:17:06;1.40;78.80
53748;DHT22;39655;53.210;5.768;2024-01-07T11:19:32;1.40;78.90
53748;DHT22;39655;53.210;5.768;2024-01-07T11:22:23;1.40;79.10
53748;DHT22;39655;53.210;5.768;2024-01-07T11:24:51;1.30;79.40
53748;DHT22;39655;53.210;5.768;2024-01-07T11:27:17;1.30;79.50
53748;DHT22;39655;53.210;5.768;2024-01-07T11:29:43;1.40;80.00
53748;DHT22;39655;53.210;5.768;2024-01-07T11:32:12;1.60;79.90
53748;DHT22;39655;53.210;5.768;2024-01-07T11:34:41;1.80;79.20
53748;DHT22;39655;53.210;5.768;2024-01-07T11:37:15;2.00;79.60
53748;DHT22;39655;53.210;5.768;2024-01-07T11:39:45;2.40;78.30
53748;DHT22;39655;53.210;5.768;2024-01-07T11:42:15;2.90;77.80
53748;DHT22;39655;53.210;5.768;2024-01-07T11:44:47;3.20;75.60
53748;DHT22;39655;53.210;5.768;2024-01-07T11:47:17;3.80;75.40
53748;DHT22;39655;53.210;5.768;2024-01-07T11:54:37;4.70;71.00
53748;DHT22;39655;53.210;5.768;2024-01-07T11:57:04;5.20;70.10
53748;DHT22;39655;53.210;5.768;2024-01-07T11:59:30;5.60;68.80
53748;DHT22;39655;53.210;5.768;2024-01-07T12:01:55;5.90;66.70
53748;DHT22;39655;53.210;5.768;2024-01-07T12:04:21;6.00;66.60
53748;DHT22;39655;53.210;5.768;2024-01-07T12:06:48;5.50;65.60
53748;DHT22;39655;53.210;5.768;2024-01-07T12:09:14;4.90;67.90
53748;DHT22;39655;53.210;5.768;2024-01-07T12:11:41;4.40;68.80
53748;DHT22;39655;53.210;5.768;2024-01-07T12:14:09;4.20;69.60
53748;DHT22;39655;53.210;5.768;2024-01-07T12:16:36;3.80;69.90
53748;DHT22;39655;53.210;5.768;2024-01-07T12:19:02;3.40;71.10
53748;DHT22;39655;53.210;5.768;2024-01-07T12:21:28;3.20;71.40
53748;DHT22;39655;53.210;5.768;2024-01-07T12:23:55;3.20;72.00
53748;DHT22;39655;53.210;5.768;2024-01-07T12:33:46;5.40;67.60
53748;DHT22;39655;53.210;5.768;2024-01-07T12:36:12;5.70;65.70
53748;DHT22;39655;53.210;5.768;2024-01-07T12:38:38;5.60;65.40
53748;DHT22;39655;53.210;5.768;2024-01-07T12:41:04;5.60;63.70
53748;DHT22;39655;53.210;5.768;2024-01-07T12:43:30;5.90;64.90
53748;DHT22;39655;53.210;5.768;2024-01-07T12:45:56;6.00;63.40
53748;DHT22;39655;53.210;5.768;2024-01-07T12:48:22;6.20;64.20
53748;DHT22;39655;53.210;5.768;2024-01-07T12:50:48;6.30;62.90
53748;DHT22;39655;53.210;5.768;2024-01-07T12:53:14;6.20;61.90
53748;DHT22;39655;53.210;5.768;2024-01-07T12:55:40;6.10;63.00
53748;DHT22;39655;53.210;5.768;2024-01-07T12:58:05;6.10;62.70
53748;DHT22;39655;53.210;5.768;2024-01-07T13:00:31;6.10;62.40
53748;DHT22;39655;53.210;5.768;2024-01-07T13:02:57;6.10;62.40
53748;DHT22;39655;53.210;5.768;2024-01-07T13:05:23;6.00;62.40
53748;DHT22;39655;53.210;5.768;2024-01-07T13:07:49;6.10;63.40
53748;DHT22;39655;53.210;5.768;2024-01-07T13:10:15;6.20;62.80
53748;DHT22;39655;53.210;5.768;2024-01-07T13:12:41;6.30;62.70
53748;DHT22;39655;53.210;5.768;2024-01-07T13:15:07;6.40;61.00
53748;DHT22;39655;53.210;5.768;2024-01-07T13:17:33;5.70;61.40
53748;DHT22;39655;53.210;5.768;2024-01-07T13:20:00;4.70;63.10
53748;DHT22;39655;53.210;5.768;2024-01-07T13:22:26;3.80;66.00
53748;DHT22;39655;53.210;5.768;2024-01-07T13:24:51;3.10;68.20
53748;DHT22;39655;53.210;5.768;2024-01-07T13:27:19;2.70;70.00
53748;DHT22;39655;53.210;5.768;2024-01-07T13:29:46;2.40;71.60
53748;DHT22;39655;53.210;5.768;2024-01-07T13:32:13;2.20;72.60
53748;DHT22;39655;53.210;5.768;2024-01-07T13:34:43;2.00;73.50
53748;DHT22;39655;53.210;5.768;2024-01-07T13:37:09;2.00;74.40
53748;DHT22;39655;53.210;5.768;2024-01-07T13:39:35;1.90;75.10
53748;DHT22;39655;53.210;5.768;2024-01-07T13:42:00;1.80;75.70
53748;DHT22;39655;53.210;5.768;2024-01-07T13:44:26;1.80;76.20
53748;DHT22;39655;53.210;5.768;2024-01-07T13:46:52;1.70;76.70
53748;DHT22;39655;53.210;5.768;2024-01-07T13:49:18;1.70;77.10
53748;DHT22;39655;53.210;5.768;2024-01-07T13:51:44;1.70;77.40
53748;DHT22;39655;53.210;5.768;2024-01-07T13:54:10;1.70;77.60
53748;DHT22;39655;53.210;5.768;2024-01-07T13:56:46;1.60;77.90
53748;DHT22;39655;53.210;5.768;2024-01-07T13:59:12;1.50;78.40
53748;DHT22;39655;53.210;5.768;2024-01-07T14:01:38;1.50;78.60
53748;DHT22;39655;53.210;5.768;2024-01-07T14:04:04;1.60;78.60
53748;DHT22;39655;53.210;5.768;2024-01-07T14:06:30;1.50;78.80
53748;DHT22;39655;53.210;5.768;2024-01-07T14:08:57;1.40;79.10
53748;DHT22;39655;53.210;5.768;2024-01-07T14:11:23;1.40;79.30
53748;DHT22;39655;53.210;5.768;2024-01-07T14:13:49;1.40;79.30
53748;DHT22;39655;53.210;5.768;2024-01-07T14:16:20;1.40;79.50
53748;DHT22;39655;53.210;5.768;2024-01-07T14:18:46;1.30;79.70
53748;DHT22;39655;53.210;5.768;2024-01-07T14:21:12;1.30;79.90
53748;DHT22;39655;53.210;5.768;2024-01-07T14:23:41;1.30;80.10
53748;DHT22;39655;53.210;5.768;2024-01-07T14:26:06;1.20;80.50
53748;DHT22;39655;53.210;5.768;2024-01-07T14:28:35;1.10;80.70
53748;DHT22;39655;53.210;5.768;2024-01-07T14:31:01;1.20;80.90
53748;DHT22;39655;53.210;5.768;2024-01-07T14:33:29;1.10;81.10
53748;DHT22;39655;53.210;5.768;2024-01-07T14:35:55;1.10;81.20
53748;DHT22;39655;53.210;5.768;2024-01-07T14:38:20;1.10;81.30
53748;DHT22;39655;53.210;5.768;2024-01-07T14:40:47;1.10;81.60
53748;DHT22;39655;53.210;5.768;2024-01-07T14:43:13;1.10;81.70
53748;DHT22;39655;53.210;5.768;2024-01-07T14:45:39;1.00;81.70
53748;DHT22;39655;53.210;5.768;2024-01-07T14:48:05;1.00;81.80
53748;DHT22;39655;53.210;5.768;2024-01-07T14:50:31;0.90;82.10
53748;DHT22;39655;53.210;5.768;2024-01-07T14:52:57;0.90;82.10
53748;DHT22;39655;53.210;5.768;2024-01-07T14:55:23;0.80;82.50
53748;DHT22;39655;53.210;5.768;2024-01-07T14:57:49;0.80;82.60
53748;DHT22;39655;53.210;5.768;2024-01-07T15:00:15;0.70;82.80
53748;DHT22;39655;53.210;5.768;2024-01-07T15:02:41;0.60;83.00
53748;DHT22;39655;53.210;5.768;2024-01-07T15:05:07;1.30;81.80
53748;DHT22;39655;53.210;5.768;2024-01-07T15:07:34;0.80;82.50
53748;DHT22;39655;53.210;5.768;2024-01-07T15:10:00;0.60;83.00
53748;DHT22;39655;53.210;5.768;2024-01-07T15:12:27;0.50;83.30
53748;DHT22;39655;53.210;5.768;2024-01-07T15:15:04;0.40;83.50
53748;DHT22;39655;53.210;5.768;2024-01-07T15:17:32;0.30;83.70
53748;DHT22;39655;53.210;5.768;2024-01-07T15:19:58;0.30;84.00
53748;DHT22;39655;53.210;5.768;2024-01-07T15:22:23;0.30;84.00
53748;DHT22;39655;53.210;5.768;2024-01-07T15:24:49;0.20;84.30
53748;DHT22;39655;53.210;5.768;2024-01-07T15:27:15;0.20;84.40
53748;DHT22;39655;53.210;5.768;2024-01-07T15:29:41;0.10;84.50
53748;DHT22;39655;53.210;5.768;2024-01-07T15:32:06;0.00;85.00
53748;DHT22;39655;53.210;5.768;2024-01-07T15:34:32;0.00;84.90
53748;DHT22;39655;53.210;5.768;2024-01-07T15:36:58;0.00;85.00
53748;DHT22;39655;53.210;5.768;2024-01-07T15:39:23;0.00;85.20
53748;DHT22;39655;53.210;5.768;2024-01-07T15:41:49;-3276.70;85.20
53748;DHT22;39655;53.210;5.768;2024-01-07T15:44:15;-3276.70;85.60
53748;DHT22;39655;53.210;5.768;2024-01-07T15:46:44;-3276.60;85.80
53748;DHT22;39655;53.210;5.768;2024-01-07T15:49:09;-3276.50;85.80
53748;DHT22;39655;53.210;5.768;2024-01-07T15:51:35;-3276.50;85.80
53748;DHT22;39655;53.210;5.768;2024-01-07T15:54:01;-3276.40;85.90
53748;DHT22;39655;53.210;5.768;2024-01-07T15:56:27;-3276.40;86.30
53748;DHT22;39655;53.210;5.768;2024-01-07T15:58:53;-3276.30;86.60